Time;durP1;ratioP1;P1;durP2;ratioP2;P2;SDS_P1;SDS_P2;PMS_P1;PMS_P2;Temp;Humidity;BMP_temperature;BMP_pressure;BME280_temperature;BME280_humidity;BME280_pressure;Samples;Min_cycle;Max_cycle;Signal;HPM_P1;HPM_P2
2023/11/15 00:00:48;;;;;;;9.25;2.85;;;11.10;92.70;;;;;;4995287;28;20033;-31
2023/11/15 00:03:16;;;;;;;8.25;2.80;;;11.10;92.70;;;;;;4995428;28;20486;-31
2023/11/15 00:05:42;;;;;;;8.45;2.60;;;11.10;92.70;;;;;;4995355;28;20027;-30
2023/11/15 00:08:07;;;;;;;10.57;2.70;;;11.10;92.70;;;;;;4995169;28;20019;-30
2023/11/15 00:10:33;;;;;;;7.63;2.70;;;11.10;92.70;;;;;;4995250;28;20018;-33
2023/11/15 00:12:59;;;;;;;10.68;2.72;;;11.10;92.70;;;;;;4995084;28;20391;-29
2023/11/15 00:15:24;;;;;;;10.80;2.90;;;11.10;92.70;;;;;;4995230;28;20105;-31
2023/11/15 00:17:50;;;;;;;9.50;2.75;;;11.10;92.70;;;;;;4994993;28;20037;-29
2023/11/15 00:20:16;;;;;;;9.05;2.58;;;11.10;92.70;;;;;;4994923;28;20478;-29
2023/11/15 00:22:42;;;;;;;6.55;2.30;;;11.10;92.70;;;;;;4994931;28;20026;-29
2023/11/15 00:25:08;;;;;;;7.78;2.80;;;11.10;92.70;;;;;;4993499;28;20115;-32
2023/11/15 00:27:34;;;;;;;6.20;2.60;;;11.00;92.80;;;;;;4994828;28;20026;-28
2023/11/15 00:30:00;;;;;;;10.05;2.80;;;11.00;92.80;;;;;;4994594;28;20054;-28
2023/11/15 00:32:26;;;;;;;7.78;2.10;;;11.00;92.80;;;;;;4994714;28;20101;-32
2023/11/15 00:34:53;;;;;;;8.90;2.17;;;11.00;92.80;;;;;;4993445;28;20110;-33
2023/11/15 00:37:18;;;;;;;5.38;2.05;;;11.00;92.80;;;;;;4994753;28;20533;-30
2023/11/15 00:39:44;;;;;;;8.00;2.60;;;11.00;92.90;;;;;;4994672;28;20286;-35
2023/11/15 00:42:10;;;;;;;10.43;2.70;;;11.00;92.90;;;;;;4994818;28;20014;-29
2023/11/15 00:44:36;;;;;;;8.18;2.30;;;11.00;92.90;;;;;;4994569;28;20030;-34
2023/11/15 00:47:03;;;;;;;8.73;2.33;;;11.00;92.90;;;;;;4993532;28;20483;-34
2023/11/15 00:49:29;;;;;;;11.73;3.05;;;11.00;92.90;;;;;;4994454;28;20014;-27
2023/11/15 00:51:56;;;;;;;11.82;2.58;;;11.00;92.90;;;;;;4994526;28;20125;-37
2023/11/15 00:54:23;;;;;;;7.68;2.80;;;11.00;92.90;;;;;;4994809;28;20061;-34
2023/11/15 00:56:49;;;;;;;7.93;2.70;;;10.90;92.90;;;;;;4994333;28;20026;-32
2023/11/15 00:59:16;;;;;;;7.47;2.40;;;10.90;92.90;;;;;;4994351;28;20073;-37
2023/11/15 01:01:43;;;;;;;7.72;2.63;;;10.90;93.00;;;;;;4994578;28;20434;-30
2023/11/15 01:04:10;;;;;;;7.22;2.75;;;10.90;93.00;;;;;;4994261;28;20034;-33
2023/11/15 01:06:35;;;;;;;8.82;2.80;;;10.90;93.00;;;;;;4994105;28;20491;-32
2023/11/15 01:09:03;;;;;;;9.27;2.90;;;10.90;93.10;;;;;;4994168;28;20051;-32
2023/11/15 01:11:29;;;;;;;7.30;2.65;;;10.90;93.10;;;;;;4994248;28;20015;-32
2023/11/15 01:13:54;;;;;;;8.50;2.50;;;10.90;93.10;;;;;;4993965;28;20479;-30
2023/11/15 01:16:23;;;;;;;6.68;2.60;;;10.90;93.00;;;;;;4994267;28;20053;-32
2023/11/15 01:18:50;;;;;;;7.55;2.55;;;10.90;93.10;;;;;;4993884;28;20026;-33
2023/11/15 01:21:18;;;;;;;6.07;2.03;;;10.90;93.10;;;;;;4993896;28;20536;-30
2023/11/15 01:23:44;;;;;;;5.50;2.10;;;10.80;93.10;;;;;;4993994;28;20496;-31
2023/11/15 01:26:10;;;;;;;4.38;1.60;;;10.80;93.10;;;;;;4993734;28;20023;-30
2023/11/15 01:28:35;;;;;;;3.70;1.65;;;10.80;93.10;;;;;;4993677;28;20505;-30
2023/11/15 01:31:02;;;;;;;3.03;1.17;;;10.80;93.10;;;;;;4993672;28;20044;-33
2023/11/15 01:33:27;;;;;;;4.47;1.40;;;10.80;93.10;;;;;;4993750;28;20033;-32
2023/11/15 01:35:53;;;;;;;4.45;1.02;;;10.80;93.10;;;;;;4993728;28;20463;-29
2023/11/15 01:38:19;;;;;;;4.75;1.02;;;10.70;93.10;;;;;;4993600;28;20065;-29
2023/11/15 01:40:46;;;;;;;4.45;1.90;;;10.70;93.10;;;;;;4993579;28;20054;-32
2023/11/15 01:43:12;;;;;;;2.58;1.00;;;10.60;93.10;;;;;;4993545;28;20041;-29
2023/11/15 01:45:37;;;;;;;5.40;0.90;;;10.60;93.10;;;;;;4993649;28;20018;-33
2023/11/15 01:48:04;;;;;;;3.25;0.68;;;10.60;93.10;;;;;;4993251;28;20030;-28
2023/11/15 01:50:31;;;;;;;1.55;0.90;;;10.60;93.20;;;;;;4993324;28;20390;-30
2023/11/15 01:52:58;;;;;;;2.63;1.02;;;10.60;93.20;;;;;;4993258;28;20022;-32
2023/11/15 01:55:23;;;;;;;3.58;0.95;;;10.50;93.20;;;;;;4993332;28;20054;-30
2023/11/15 01:57:52;;;;;;;2.90;0.88;;;10.50;93.20;;;;;;4993445;28;20415;-29
2023/11/15 02:00:18;;;;;;;3.50;1.20;;;10.50;93.20;;;;;;4992811;28;20038;-34
2023/11/15 02:02:44;;;;;;;2.40;1.00;;;10.50;93.30;;;;;;4992895;28;20030;-29
2023/11/15 02:05:10;;;;;;;2.05;1.00;;;10.40;93.20;;;;;;4993300;28;20474;-30
2023/11/15 02:07:37;;;;;;;1.80;0.70;;;10.40;93.30;;;;;;4992965;28;20034;-32
2023/11/15 02:10:05;;;;;;;1.15;0.70;;;10.40;93.30;;;;;;4993116;28;20050;-31
2023/11/15 02:12:31;;;;;;;3.03;0.88;;;10.40;93.30;;;;;;4991590;28;20022;-38
2023/11/15 02:14:58;;;;;;;2.15;0.80;;;10.40;93.30;;;;;;4991547;28;20425;-28
2023/11/15 02:17:24;;;;;;;1.70;0.63;;;10.40;93.30;;;;;;4991579;28;20023;-29
2023/11/15 02:19:50;;;;;;;1.85;0.90;;;10.30;93.30;;;;;;4991568;28;20033;-31
2023/11/15 02:22:16;;;;;;;1.75;0.80;;;10.30;93.30;;;;;;4992700;28;20375;-30
2023/11/15 02:24:42;;;;;;;2.15;0.90;;;10.30;93.30;;;;;;4992785;28;20086;-28
2023/11/15 02:27:08;;;;;;;1.52;0.70;;;10.30;93.30;;;;;;4992583;28;20031;-32
2023/11/15 02:29:33;;;;;;;1.83;0.80;;;10.30;93.30;;;;;;4992581;28;20045;-33
2023/11/15 02:31:59;;;;;;;2.13;0.88;;;10.30;93.30;;;;;;4992560;28;20029;-35
2023/11/15 02:34:24;;;;;;;1.88;0.77;;;10.30;93.30;;;;;;4992664;28;20033;-31
2023/11/15 02:36:50;;;;;;;2.00;1.00;;;10.30;93.30;;;;;;4991238;28;20037;-29
2023/11/15 02:39:16;;;;;;;5.05;0.80;;;10.40;93.30;;;;;;4992432;28;20030;-32
2023/11/15 02:41:41;;;;;;;1.85;0.80;;;10.30;93.50;;;;;;4992349;28;20029;-34
2023/11/15 02:44:09;;;;;;;2.35;0.93;;;10.40;93.30;;;;;;4992423;28;20023;-31
2023/11/15 02:46:34;;;;;;;4.78;0.80;;;10.40;93.30;;;;;;4992318;28;20050;-31
2023/11/15 02:49:00;;;;;;;3.60;1.25;;;10.40;93.30;;;;;;4992393;28;20112;-36
2023/11/15 02:51:25;;;;;;;2.75;0.90;;;10.40;93.30;;;;;;4992201;28;20014;-34
2023/11/15 02:53:52;;;;;;;2.88;1.10;;;10.50;93.30;;;;;;4992428;28;20038;-32
2023/11/15 02:56:18;;;;;;;3.13;1.17;;;10.50;93.30;;;;;;4992242;28;20077;-34
2023/11/15 02:58:43;;;;;;;3.90;1.00;;;10.50;93.20;;;;;;4992289;28;20022;-31
2023/11/15 03:01:11;;;;;;;2.10;1.00;;;10.50;93.20;;;;;;4992109;28;20030;-31
2023/11/15 03:03:37;;;;;;;3.03;1.13;;;10.60;93.20;;;;;;4991053;28;20540;-31
2023/11/15 03:06:03;;;;;;;2.65;1.27;;;10.60;93.20;;;;;;4992633;28;20022;-28
2023/11/15 03:08:30;;;;;;;4.93;1.70;;;10.60;93.20;;;;;;4992264;28;20113;-29
2023/11/15 03:10:56;;;;;;;5.20;1.80;;;10.60;93.20;;;;;;4996029;28;20022;-34
2023/11/15 03:13:22;;;;;;;2.70;1.50;;;10.60;93.20;;;;;;4996503;28;20401;-31
2023/11/15 03:15:48;;;;;;;3.92;1.60;;;10.60;93.20;;;;;;4996333;28;20022;-30
2023/11/15 03:18:14;;;;;;;4.65;1.50;;;10.60;93.20;;;;;;4996066;28;20319;-30
2023/11/15 03:20:40;;;;;;;4.38;2.00;;;10.70;93.20;;;;;;4996004;28;20037;-34
2023/11/15 03:23:05;;;;;;;4.53;2.00;;;10.70;93.20;;;;;;4994833;28;20034;-29
2023/11/15 03:25:31;;;;;;;4.45;1.63;;;10.70;93.20;;;;;;4996287;28;20030;-29
2023/11/15 03:27:56;;;;;;;3.65;1.52;;;10.70;93.20;;;;;;4995807;28;20117;-30
2023/11/15 03:30:22;;;;;;;7.80;2.35;;;10.80;93.20;;;;;;4996011;28;20089;-30
2023/11/15 03:32:47;;;;;;;7.60;2.05;;;10.80;93.20;;;;;;4994464;28;20479;-33
2023/11/15 03:35:13;;;;;;;6.55;1.85;;;10.80;93.20;;;;;;4995830;28;20053;-30
2023/11/15 03:37:39;;;;;;;6.95;2.20;;;10.80;93.20;;;;;;4996514;28;20117;-31
2023/11/15 03:40:08;;;;;;;9.82;2.03;;;10.80;93.20;;;;;;4994706;28;20032;-30
2023/11/15 03:42:36;;;;;;;9.85;2.30;;;10.80;93.20;;;;;;4995643;28;20080;-32
2023/11/15 03:45:04;;;;;;;10.52;2.72;;;10.80;93.20;;;;;;4995852;28;20030;-31
2023/11/15 03:47:30;;;;;;;9.30;3.00;;;10.80;93.20;;;;;;4995415;28;20026;-29
2023/11/15 03:49:56;;;;;;;8.10;2.55;;;10.90;93.20;;;;;;4995539;28;20073;-31
2023/11/15 03:52:21;;;;;;;11.57;2.85;;;10.90;93.20;;;;;;4995484;28;20022;-29
2023/11/15 03:54:47;;;;;;;12.85;2.80;;;10.90;93.20;;;;;;4995680;28;20471;-36
2023/11/15 03:57:13;;;;;;;15.30;3.00;;;11.00;93.30;;;;;;4995469;28;20109;-29
2023/11/15 03:59:38;;;;;;;8.45;2.67;;;11.00;93.20;;;;;;4995473;28;20033;-32
2023/11/15 04:02:04;;;;;;;11.63;3.10;;;11.00;93.20;;;;;;4995389;28;20030;-37
2023/11/15 04:04:29;;;;;;;10.82;2.65;;;11.00;93.20;;;;;;4995427;28;20042;-33
2023/11/15 04:06:55;;;;;;;12.23;3.28;;;11.00;93.20;;;;;;4995546;28;20473;-30
2023/11/15 04:09:21;;;;;;;12.25;3.20;;;11.00;93.20;;;;;;4995244;28;20113;-29
2023/11/15 04:11:48;;;;;;;16.02;3.50;;;11.00;93.20;;;;;;4995447;28;20026;-30
2023/11/15 04:14:14;;;;;;;11.35;2.90;;;11.00;93.30;;;;;;4995415;28;20486;-29
2023/11/15 04:16:39;;;;;;;9.52;2.72;;;11.00;93.30;;;;;;4994925;28;20025;-31
2023/11/15 04:19:05;;;;;;;11.25;3.17;;;11.00;93.30;;;;;;4995324;28;20117;-31
2023/11/15 04:21:31;;;;;;;13.60;2.97;;;11.00;93.30;;;;;;4993691;28;20483;-29
2023/11/15 04:23:57;;;;;;;12.50;2.95;;;11.00;93.30;;;;;;4995176;28;20096;-36
2023/11/15 04:26:22;;;;;;;11.02;2.83;;;11.00;93.30;;;;;;4995176;28;20394;-29
2023/11/15 04:28:48;;;;;;;13.02;3.20;;;11.00;93.30;;;;;;4994728;28;20055;-29
2023/11/15 04:31:14;;;;;;;13.90;3.17;;;11.00;93.30;;;;;;4994837;28;20073;-29
2023/11/15 04:33:40;;;;;;;9.77;2.60;;;11.00;93.30;;;;;;4994744;28;20026;-30
2023/11/15 04:36:07;;;;;;;15.27;3.22;;;11.00;93.30;;;;;;4995152;28;20019;-29
2023/11/15 04:38:33;;;;;;;12.75;2.80;;;11.00;93.30;;;;;;4995041;28;20034;-32
2023/11/15 04:40:59;;;;;;;13.25;3.25;;;11.00;93.30;;;;;;4994523;28;20106;-29
2023/11/15 04:43:25;;;;;;;13.82;2.80;;;11.00;93.30;;;;;;4994979;28;20146;-40
2023/11/15 04:45:51;;;;;;;11.00;2.72;;;11.00;93.30;;;;;;4994657;28;20114;-31
2023/11/15 04:48:17;;;;;;;12.95;2.67;;;11.00;93.30;;;;;;4994635;28;20117;-29
2023/11/15 04:50:42;;;;;;;8.50;2.28;;;11.00;93.30;;;;;;4994451;28;20023;-29
2023/11/15 04:53:08;;;;;;;7.85;2.40;;;11.00;93.30;;;;;;4994472;28;20030;-29
2023/11/15 04:55:34;;;;;;;11.88;2.65;;;11.10;93.30;;;;;;4994694;28;20018;-28
2023/11/15 04:58:00;;;;;;;6.45;2.30;;;11.10;93.30;;;;;;4994653;28;20485;-28
2023/11/15 05:00:26;;;;;;;7.75;2.25;;;11.10;93.30;;;;;;4993378;28;20130;-31
2023/11/15 05:02:51;;;;;;;10.57;2.35;;;11.10;93.30;;;;;;4994060;28;20061;-28
2023/11/15 05:05:17;;;;;;;12.85;2.30;;;11.00;93.30;;;;;;4994250;28;20034;-31
2023/11/15 05:07:43;;;;;;;7.95;2.53;;;11.10;93.30;;;;;;4994217;28;20038;-27
2023/11/15 05:10:09;;;;;;;14.63;2.70;;;11.10;93.30;;;;;;4994226;28;20023;-34
2023/11/15 05:12:36;;;;;;;12.32;2.25;;;11.10;93.30;;;;;;4993402;28;20516;-32
2023/11/15 05:15:02;;;;;;;13.10;2.58;;;11.00;93.30;;;;;;4992674;28;20677;-30
2023/11/15 05:17:27;;;;;;;7.57;2.03;;;11.00;93.30;;;;;;4992030;28;20018;-29
2023/11/15 05:19:53;;;;;;;11.45;2.50;;;11.00;93.30;;;;;;4991290;28;20026;-31
2023/11/15 05:22:18;;;;;;;10.48;1.92;;;11.00;93.30;;;;;;4992276;28;20483;-33
2023/11/15 05:24:44;;;;;;;13.18;2.45;;;11.00;93.30;;;;;;4992631;28;20208;-29
2023/11/15 05:27:10;;;;;;;10.95;2.40;;;11.00;93.30;;;;;;4992189;28;20085;-29
2023/11/15 05:29:37;;;;;;;13.65;2.35;;;11.00;93.30;;;;;;4992273;28;20053;-31
2023/11/15 05:32:02;;;;;;;9.93;2.40;;;11.00;93.30;;;;;;4992059;28;20025;-29
2023/11/15 05:34:28;;;;;;;11.95;2.40;;;11.00;93.30;;;;;;4992546;28;20015;-29
2023/11/15 05:36:54;;;;;;;10.20;2.35;;;11.10;93.30;;;;;;4992192;28;20157;-29
2023/11/15 05:39:19;;;;;;;12.48;2.30;;;11.10;93.30;;;;;;4992263;28;20105;-29
2023/11/15 05:41:45;;;;;;;14.80;2.85;;;11.10;93.30;;;;;;4993613;28;20100;-32
2023/11/15 05:44:10;;;;;;;12.10;2.70;;;11.10;93.30;;;;;;4993448;28;20034;-29
2023/11/15 05:46:36;;;;;;;12.52;2.53;;;11.10;93.30;;;;;;4992013;28;20208;-29
2023/11/15 05:49:02;;;;;;;8.60;2.28;;;11.10;93.30;;;;;;4993401;28;20026;-30
2023/11/15 05:51:27;;;;;;;13.25;2.50;;;11.10;93.30;;;;;;4993435;28;20029;-29
2023/11/15 05:53:53;;;;;;;12.32;2.75;;;11.10;93.30;;;;;;4993398;28;20014;-31
2023/11/15 05:56:20;;;;;;;13.90;3.58;;;11.10;93.30;;;;;;4993299;28;20080;-32
2023/11/15 05:58:45;;;;;;;14.50;2.60;;;11.10;93.30;;;;;;4993381;28;20022;-35
2023/11/15 06:01:12;;;;;;;11.80;3.10;;;11.10;93.30;;;;;;4993176;28;20398;-30
2023/11/15 06:03:38;;;;;;;9.65;2.17;;;11.10;93.30;;;;;;4993790;28;20019;-30
2023/11/15 06:06:04;;;;;;;18.05;2.72;;;11.10;93.30;;;;;;4993128;28;20126;-30
2023/11/15 06:08:29;;;;;;;12.75;2.35;;;11.10;93.40;;;;;;4993001;28;20030;-35
2023/11/15 06:10:55;;;;;;;7.68;2.50;;;11.10;93.40;;;;;;4992930;28;20117;-30
2023/11/15 06:13:20;;;;;;;10.55;2.60;;;11.10;93.40;;;;;;4992923;28;20491;-29
2023/11/15 06:15:46;;;;;;;15.25;2.60;;;11.20;93.40;;;;;;4992986;28;20364;-32
2023/11/15 06:18:12;;;;;;;12.65;2.65;;;11.20;93.40;;;;;;4991409;28;20026;-28
2023/11/15 06:20:40;;;;;;;13.10;3.08;;;11.10;93.40;;;;;;4992883;28;20107;-31
2023/11/15 06:23:06;;;;;;;15.38;3.42;;;11.20;93.40;;;;;;4993008;28;20483;-30
2023/11/15 06:25:32;;;;;;;14.48;2.58;;;11.10;93.70;;;;;;4991453;28;20106;-28
2023/11/15 06:28:03;;;;;;;13.00;2.58;;;11.10;93.40;;;;;;4992483;28;20089;-29
2023/11/15 06:30:29;;;;;;;14.35;2.53;;;11.10;93.40;;;;;;4992696;28;20054;-30
2023/11/15 06:32:55;;;;;;;11.85;2.95;;;11.10;93.50;;;;;;4991496;28;20093;-31
2023/11/15 06:35:21;;;;;;;11.15;3.25;;;11.10;93.50;;;;;;4992665;28;20113;-29
2023/11/15 06:37:48;;;;;;;11.85;2.88;;;11.10;93.50;;;;;;4992697;28;20038;-30
2023/11/15 06:40:14;;;;;;;12.20;2.88;;;11.10;93.50;;;;;;4992486;28;20029;-32
2023/11/15 06:42:40;;;;;;;15.98;2.53;;;11.20;93.50;;;;;;4992406;28;20030;-31
2023/11/15 06:45:06;;;;;;;13.07;2.67;;;11.20;93.50;;;;;;4991741;28;20084;-30
2023/11/15 06:47:33;;;;;;;15.88;3.28;;;11.20;93.50;;;;;;4992266;28;20037;-33
2023/11/15 06:49:58;;;;;;;12.15;2.90;;;11.20;93.50;;;;;;4992284;28;20018;-34
2023/11/15 06:52:25;;;;;;;16.73;3.00;;;11.10;93.40;;;;;;4992210;28;20037;-41
2023/11/15 06:54:52;;;;;;;14.13;3.05;;;11.10;93.50;;;;;;4992325;28;20030;-29
2023/11/15 06:57:19;;;;;;;14.07;3.08;;;11.10;93.50;;;;;;4992373;28;20069;-29
2023/11/15 06:59:44;;;;;;;10.05;2.83;;;11.10;93.50;;;;;;4991091;28;20030;-29
2023/11/15 07:02:11;;;;;;;13.00;2.90;;;11.10;93.50;;;;;;4992094;28;20065;-29
2023/11/15 07:04:37;;;;;;;11.48;3.08;;;11.10;93.50;;;;;;4992676;28;20027;-29
2023/11/15 07:07:03;;;;;;;12.98;3.28;;;11.10;93.60;;;;;;4992319;28;20049;-29
2023/11/15 07:09:28;;;;;;;15.82;3.25;;;11.00;93.50;;;;;;4992671;28;20110;-30
2023/11/15 07:11:54;;;;;;;13.02;2.83;;;11.10;93.50;;;;;;4992206;28;20015;-32
2023/11/15 07:14:20;;;;;;;12.57;3.15;;;11.10;93.80;;;;;;4992125;28;20513;-35
2023/11/15 07:16:46;;;;;;;13.65;3.30;;;11.10;93.60;;;;;;4992499;28;20041;-30
2023/11/15 07:19:13;;;;;;;11.25;4.35;;;11.10;93.60;;;;;;4992378;28;20029;-31
2023/11/15 07:21:39;;;;;;;13.98;3.78;;;11.10;93.60;;;;;;4991979;28;20061;-30
2023/11/15 07:24:05;;;;;;;13.43;2.95;;;11.10;93.60;;;;;;4992372;28;20030;-28
2023/11/15 07:26:35;;;;;;;15.63;3.15;;;11.10;93.60;;;;;;4991976;28;20049;-28
2023/11/15 07:29:01;;;;;;;12.70;2.40;;;11.10;93.60;;;;;;4991886;28;20462;-30
2023/11/15 07:31:26;;;;;;;7.57;2.33;;;11.10;93.50;;;;;;4991971;28;20019;-34
2023/11/15 07:33:52;;;;;;;12.00;2.80;;;11.10;93.60;;;;;;4990600;28;20023;-33
2023/11/15 07:36:17;;;;;;;14.95;3.33;;;11.00;93.50;;;;;;4992119;28;20022;-32
2023/11/15 07:38:43;;;;;;;8.15;2.28;;;11.00;93.50;;;;;;4992024;28;20030;-29
2023/11/15 07:41:10;;;;;;;4.65;1.67;;;10.90;93.40;;;;;;4992053;28;20522;-32
2023/11/15 07:43:35;;;;;;;5.47;1.80;;;10.80;93.40;;;;;;4991890;28;20054;-29
2023/11/15 07:46:01;;;;;;;5.25;1.45;;;10.70;93.30;;;;;;4991628;28;20030;-30
2023/11/15 07:48:27;;;;;;;4.07;1.50;;;10.70;93.20;;;;;;4991559;28;20026;-30
2023/11/15 07:50:52;;;;;;;6.05;1.50;;;10.50;93.20;;;;;;4991588;28;20030;-31
2023/11/15 07:53:18;;;;;;;5.45;1.65;;;10.40;93.30;;;;;;4992013;28;20101;-31
2023/11/15 07:55:44;;;;;;;6.18;1.40;;;10.40;93.40;;;;;;4993177;28;20072;-31
2023/11/15 07:58:11;;;;;;;6.20;1.38;;;10.30;93.40;;;;;;4995682;28;20386;-29
2023/11/15 08:00:36;;;;;;;5.63;1.42;;;10.40;93.50;;;;;;4995833;28;20483;-31
2023/11/15 08:03:04;;;;;;;4.82;1.70;;;10.30;93.40;;;;;;4995307;28;20022;-36
2023/11/15 08:05:29;;;;;;;6.35;1.63;;;10.30;93.50;;;;;;4995660;28;20286;-29
2023/11/15 08:07:56;;;;;;;8.57;1.75;;;10.40;93.50;;;;;;4995286;28;20564;-38
2023/11/15 08:10:23;;;;;;;6.80;1.83;;;10.40;93.50;;;;;;4995323;28;20023;-32
2023/11/15 08:12:49;;;;;;;7.40;2.10;;;10.40;93.60;;;;;;4994899;28;20485;-41
2023/11/15 08:15:16;;;;;;;6.40;2.22;;;10.40;93.60;;;;;;4995153;28;20070;-29
2023/11/15 08:17:43;;;;;;;14.60;2.65;;;10.50;93.60;;;;;;4995117;28;20037;-29
2023/11/15 08:20:09;;;;;;;9.77;2.40;;;10.60;93.60;;;;;;4995215;28;20030;-30
2023/11/15 08:22:37;;;;;;;10.40;3.03;;;10.60;93.60;;;;;;4994792;28;20022;-29
2023/11/15 08:25:09;;;;;;;9.18;2.60;;;10.70;93.90;;;;;;4994929;28;20109;-31
2023/11/15 08:27:38;;;;;;;12.95;2.83;;;10.70;93.60;;;;;;4994750;28;20114;-32
2023/11/15 08:30:17;;;;;;;11.40;3.30;;;10.70;93.60;;;;;;4994510;28;20042;-29
2023/11/15 08:32:44;;;;;;;15.82;3.40;;;10.80;93.60;;;;;;4994811;28;20030;-30
2023/11/15 08:35:10;;;;;;;15.90;3.40;;;10.80;93.70;;;;;;4994971;28;20033;-29
2023/11/15 08:37:38;;;;;;;13.95;4.05;;;10.80;93.70;;;;;;4995019;28;20022;-31
2023/11/15 08:40:05;;;;;;;16.20;3.65;;;10.80;93.70;;;;;;4994833;28;20429;-28
2023/11/15 08:42:31;;;;;;;14.43;3.30;;;10.90;93.70;;;;;;4992159;28;20035;-35
2023/11/15 08:44:56;;;;;;;10.40;3.00;;;10.90;93.70;;;;;;4994417;28;20114;-28
2023/11/15 08:47:24;;;;;;;12.90;2.95;;;10.90;93.70;;;;;;4993522;28;20034;-29
2023/11/15 08:49:50;;;;;;;9.82;2.72;;;10.90;93.70;;;;;;4993126;28;20023;-28
2023/11/15 08:52:20;;;;;;;11.10;3.00;;;10.90;93.70;;;;;;4994429;28;20470;-29
2023/11/15 08:54:46;;;;;;;10.18;3.53;;;10.90;93.70;;;;;;4994582;28;20409;-29
2023/11/15 08:57:15;;;;;;;15.88;3.90;;;11.00;93.80;;;;;;4994348;28;20030;-30
2023/11/15 08:59:48;;;;;;;16.92;3.42;;;11.10;93.80;;;;;;4993247;28;20113;-29
2023/11/15 09:02:18;;;;;;;14.23;3.30;;;11.10;93.70;;;;;;4992720;28;20031;-29
2023/11/15 09:04:45;;;;;;;12.63;3.00;;;11.10;93.70;;;;;;4994025;28;20089;-28
2023/11/15 09:07:12;;;;;;;14.55;3.47;;;11.10;93.70;;;;;;4991847;28;20034;-42
2023/11/15 09:09:40;;;;;;;16.27;3.70;;;11.20;93.90;;;;;;4994134;28;20113;-31
2023/11/15 09:12:09;;;;;;;11.85;3.70;;;11.20;93.60;;;;;;4993834;28;20033;-29
2023/11/15 09:14:36;;;;;;;16.15;3.30;;;11.20;93.70;;;;;;4993737;28;20105;-28
2023/11/15 09:17:05;;;;;;;13.65;3.10;;;11.30;93.60;;;;;;4993653;28;20033;-32
2023/11/15 09:19:34;;;;;;;11.10;3.50;;;11.30;93.60;;;;;;4993859;28;20394;-29
2023/11/15 09:22:03;;;;;;;12.70;2.35;;;11.30;93.50;;;;;;4993626;28;20041;-30
2023/11/15 09:24:29;;;;;;;12.27;2.60;;;11.30;93.50;;;;;;4994133;28;20593;-30
2023/11/15 09:26:58;;;;;;;14.05;3.25;;;11.30;93.50;;;;;;4993445;28;20164;-30
2023/11/15 09:29:24;;;;;;;9.57;2.38;;;11.40;93.50;;;;;;4993407;28;20061;-30
2023/11/15 09:31:50;;;;;;;9.38;2.63;;;11.50;93.40;;;;;;4993479;28;20068;-30
2023/11/15 09:34:16;;;;;;;15.93;2.83;;;11.50;93.30;;;;;;4993539;28;20026;-29
2023/11/15 09:36:42;;;;;;;7.97;2.00;;;11.50;93.20;;;;;;4993590;28;20018;-29
2023/11/15 09:39:09;;;;;;;10.15;2.55;;;11.50;93.20;;;;;;4993412;28;20033;-31
2023/11/15 09:41:36;;;;;;;13.02;2.70;;;11.40;93.20;;;;;;4993622;28;20105;-29
2023/11/15 09:44:11;;;;;;;7.70;2.10;;;11.50;93.20;;;;;;4993709;28;20381;-35
2023/11/15 09:46:37;;;;;;;10.30;2.63;;;11.50;93.10;;;;;;4993159;28;20132;-32
2023/11/15 09:49:05;;;;;;;10.35;2.67;;;11.50;93.10;;;;;;4993340;28;20035;-30
2023/11/15 09:51:35;;;;;;;8.73;2.22;;;11.50;93.10;;;;;;4993088;28;20038;-33
2023/11/15 09:54:06;;;;;;;10.93;2.50;;;11.50;93.10;;;;;;4993369;28;20351;-29
2023/11/15 09:56:35;;;;;;;8.88;2.25;;;11.50;93.00;;;;;;4993448;28;20490;-38
2023/11/15 09:59:02;;;;;;;7.93;2.08;;;11.40;93.00;;;;;;4993044;28;20045;-43
2023/11/15 10:01:27;;;;;;;9.73;2.50;;;11.40;93.00;;;;;;4993298;28;20022;-33
2023/11/15 10:03:53;;;;;;;8.18;2.70;;;11.40;93.00;;;;;;4992963;28;20420;-30
2023/11/15 10:06:19;;;;;;;11.15;3.03;;;11.40;93.10;;;;;;4992985;28;20447;-31
2023/11/15 10:08:52;;;;;;;12.07;4.03;;;11.50;93.10;;;;;;4992919;28;20038;-29
2023/11/15 10:11:18;;;;;;;11.85;2.97;;;11.50;93.00;;;;;;4992812;28;20117;-31
2023/11/15 10:13:44;;;;;;;8.57;3.00;;;11.60;92.80;;;;;;4992923;28;20101;-30
2023/11/15 10:16:22;;;;;;;14.27;3.15;;;11.60;92.80;;;;;;4992977;28;20026;-31
2023/11/15 10:18:48;;;;;;;12.70;2.90;;;11.60;92.70;;;;;;4992882;28;20523;-30
2023/11/15 10:21:15;;;;;;;11.77;3.05;;;11.60;92.70;;;;;;4992761;28;20031;-27
2023/11/15 10:23:41;;;;;;;12.02;3.03;;;11.70;92.70;;;;;;4992834;28;20034;-32
2023/11/15 10:26:09;;;;;;;11.50;3.03;;;11.70;92.60;;;;;;4992658;28;20101;-30
2023/11/15 10:28:39;;;;;;;10.20;3.03;;;11.70;92.60;;;;;;4992480;28;20049;-31
2023/11/15 10:31:13;;;;;;;14.45;3.10;;;11.80;92.50;;;;;;4992788;28;20105;-29
2023/11/15 10:33:43;;;;;;;11.32;2.88;;;11.80;92.50;;;;;;4992699;28;20033;-34
2023/11/15 10:36:19;;;;;;;11.55;2.50;;;11.80;92.50;;;;;;4992563;28;20076;-35
2023/11/15 10:38:53;;;;;;;8.63;2.22;;;11.90;92.40;;;;;;4992152;28;20030;-32
2023/11/15 10:41:22;;;;;;;10.73;2.40;;;11.90;92.40;;;;;;4992602;28;20022;-31
2023/11/15 10:43:54;;;;;;;9.57;2.38;;;11.90;92.40;;;;;;4992847;28;20382;-31
2023/11/15 10:46:30;;;;;;;10.93;2.35;;;12.00;92.30;;;;;;4992441;28;20053;-34
2023/11/15 10:48:57;;;;;;;9.48;1.98;;;12.00;92.10;;;;;;4992497;28;20177;-31
2023/11/15 10:51:29;;;;;;;13.80;2.63;;;12.00;92.10;;;;;;4992155;28;20533;-30
2023/11/15 10:53:56;;;;;;;12.10;2.35;;;12.00;92.00;;;;;;4992558;28;20462;-31
2023/11/15 10:56:24;;;;;;;14.55;2.50;;;12.10;92.00;;;;;;4992982;28;20026;-29
2023/11/15 10:58:52;;;;;;;12.55;2.15;;;12.00;91.90;;;;;;4992635;28;20054;-33
2023/11/15 11:01:19;;;;;;;14.27;2.70;;;12.10;91.90;;;;;;4991941;28;20019;-34
2023/11/15 11:03:52;;;;;;;9.75;2.63;;;12.10;91.90;;;;;;4992447;28;20038;-34
2023/11/15 11:06:53;;;;;;;10.70;2.53;;;12.10;91.80;;;;;;4992487;28;20027;-34
2023/11/15 11:09:30;;;;;;;14.20;3.63;;;12.10;91.80;;;;;;4991073;28;20413;-34
2023/11/15 11:12:05;;;;;;;12.30;3.13;;;12.20;91.80;;;;;;4990613;28;20029;-30
2023/11/15 11:14:32;;;;;;;11.23;3.08;;;12.20;91.80;;;;;;4991924;28;20023;-32
2023/11/15 11:16:59;;;;;;;11.27;2.60;;;12.20;91.80;;;;;;4990666;28;20483;-29
2023/11/15 11:19:26;;;;;;;8.75;2.63;;;12.30;91.80;;;;;;4991879;28;20037;-29
2023/11/15 11:24:31;;;;;;;9.80;2.08;;;12.30;91.60;;;;;;4992234;28;20087;-32
2023/11/15 11:27:17;;;;;;;12.00;2.55;;;12.40;91.70;;;;;;4992074;28;20026;-39
2023/11/15 11:30:11;;;;;;;9.70;2.40;;;12.30;91.50;;;;;;4991688;28;20416;-32
2023/11/15 11:32:39;;;;;;;9.50;2.15;;;12.40;91.60;;;;;;4995681;28;20386;-31
2023/11/15 11:35:05;;;;;;;11.20;3.15;;;12.40;91.50;;;;;;4996005;28;20022;-30
2023/11/15 11:37:47;;;;;;;14.25;2.75;;;12.50;91.50;;;;;;4995653;28;20033;-29
2023/11/15 11:40:17;;;;;;;13.95;2.58;;;12.60;91.40;;;;;;4994297;28;20030;-30
2023/11/15 11:42:45;;;;;;;10.90;2.35;;;12.60;91.20;;;;;;4996100;28;20026;-34
2023/11/15 11:45:15;;;;;;;13.00;2.65;;;12.60;91.20;;;;;;4995820;28;20050;-32
2023/11/15 11:47:45;;;;;;;8.60;2.30;;;12.50;91.20;;;;;;4995597;28;20791;-33
2023/11/15 11:50:22;;;;;;;11.45;2.33;;;12.50;91.10;;;;;;4995645;28;20034;-31
2023/11/15 11:52:55;;;;;;;9.20;2.08;;;12.60;91.10;;;;;;4995273;28;20031;-34
2023/11/15 11:55:22;;;;;;;8.35;2.20;;;12.60;91.10;;;;;;4995671;28;20034;-32
2023/11/15 11:57:51;;;;;;;8.65;2.17;;;12.70;91.00;;;;;;4994572;28;20026;-32
2023/11/15 12:00:18;;;;;;;10.23;2.20;;;12.80;90.80;;;;;;4995431;28;20470;-30
2023/11/15 12:02:49;;;;;;;9.70;1.80;;;12.80;90.50;;;;;;4995345;28;20026;-29
2023/11/15 12:05:20;;;;;;;11.18;2.03;;;12.80;90.40;;;;;;4995250;28;20033;-29
2023/11/15 12:07:51;;;;;;;5.65;1.67;;;12.70;89.90;;;;;;4995542;28;20088;-32
2023/11/15 12:10:18;;;;;;;11.70;2.22;;;12.60;90.00;;;;;;4995492;28;20022;-32
2023/11/15 12:12:55;;;;;;;10.05;2.25;;;12.50;90.00;;;;;;4994966;28;20026;-32
2023/11/15 12:15:24;;;;;;;11.35;2.30;;;12.40;90.10;;;;;;4995016;28;20026;-29
2023/11/15 12:17:51;;;;;;;10.80;2.42;;;12.30;90.20;;;;;;4994825;28;20027;-30
2023/11/15 12:20:40;;;;;;;9.65;2.13;;;12.20;90.20;;;;;;4993642;28;20064;-33
2023/11/15 12:23:12;;;;;;;9.82;1.90;;;12.10;90.30;;;;;;4994857;28;20104;-38
2023/11/15 12:25:47;;;;;;;9.23;1.73;;;12.00;90.40;;;;;;4995142;28;20030;-31
2023/11/15 12:28:14;;;;;;;5.55;1.63;;;11.90;90.30;;;;;;4994567;28;20157;-34
2023/11/15 12:30:42;;;;;;;7.15;1.90;;;11.80;90.40;;;;;;4994903;28;20050;-39
2023/11/15 12:33:09;;;;;;;8.60;2.28;;;11.70;90.50;;;;;;4993341;28;20038;-37
2023/11/15 12:35:36;;;;;;;7.38;2.08;;;11.70;90.70;;;;;;4994552;28;20524;-32
2023/11/15 12:38:05;;;;;;;9.85;2.42;;;11.70;91.10;;;;;;4994548;28;20069;-32
2023/11/15 12:40:36;;;;;;;8.00;1.98;;;11.70;90.80;;;;;;4994824;28;20398;-39
2023/11/15 12:43:22;;;;;;;7.47;1.75;;;11.70;90.90;;;;;;4993427;28;20078;-37